Galax, VA

2:09 AM EDT on May 29, 2017 (GMT -0400)
Twin County

Weather History for KHLX - April, 2013

Change the Weather History Date:

Wednesday, April 3, 2013

  Actual Average (KBLF) Record (KBLF)
Temperature  
Mean Temperature 42 °F -  
Max Temperature 51 °F 61 °F 81 °F (2010)
Min Temperature 32 °F 40 °F 21 °F (1961)
Degree Days  
Heating Degree Days 24    
Moisture  
Dew Point 9 °F    
Average Humidity 28    
Maximum Humidity 48    
Minimum Humidity 12    
Precipitation  
Precipitation 0.00 in - - ()
Sea Level Pressure  
Sea Level Pressure 30.22 in    
Wind  
Wind Speed 10 mph (NNW)    
Max Wind Speed 20 mph    
Max Gust Speed 23 mph    
Visibility 10 miles    
Events      
Averages and records for this station are not official NWS values.
T = Trace of Precipitation, MM = Missing Value Source: NWS Daily Summary

Daily Weather History Graph

Daily Weather History Graph

Search for Another Location

Airport or City:

Trip Planner

Search our weather history database for the weather conditions in past years. The results will help you decide how hot, cold, wet, or windy it might be!

Date:

Astronomy

Apr. 03, 2013 Rise Set
Actual Time 7:05 AM EDT 7:47 PM EDT
Civil Twilight 6:39 AM EDT 8:13 PM EDT
Nautical Twilight 6:08 AM EDT 8:44 PM EDT
Astronomical Twilight 5:37 AM EDT 9:16 PM EDT
Moon 2:35 AM EDT (4/3) 1:07 PM EDT (4/3)
Length of Visible Light 13h 33m
Length of Day
12h 41m
Last Quarter, 45% of the Moon is Illuminated
Apr 3
Last Quarter
Apr 10
New
Apr 18
First Quarter
Apr 25
Full
May 2
Last Quarter

Hourly Weather History & Observations

Time (EDT) Temp. Windchill Dew Point Humidity Pressure Visibility Wind Dir Wind Speed Gust Speed Precip Events Conditions
12:15 AM 39.2 °F 31.2 °F 12.2 °F 33% 30.15 in 10.0 mi NNW 13.8 mph - N/A   Clear
12:35 AM 39.2 °F 32.0 °F 10.4 °F 31% 30.15 in 10.0 mi NNW 11.5 mph - N/A   Clear
12:55 AM 39.2 °F 30.8 °F 8.6 °F 28% 30.15 in 10.0 mi NNW 15.0 mph - N/A   Clear
1:15 AM 39.2 °F 30.5 °F 8.6 °F 28% 30.15 in 10.0 mi NW 16.1 mph 19.6 mph N/A   Clear
1:35 AM 39.2 °F 29.6 °F 6.8 °F 26% 30.16 in 10.0 mi NW 19.6 mph - N/A   Clear
1:55 AM 39.2 °F 30.2 °F 8.6 °F 28% 30.15 in 10.0 mi NW 17.3 mph 23.0 mph N/A   Clear
2:15 AM 39.2 °F 31.6 °F 8.6 °F 28% 30.16 in 10.0 mi NW 12.7 mph - N/A   Clear
2:35 AM 37.4 °F 29.8 °F 8.6 °F 30% 30.17 in 10.0 mi NW 11.5 mph - N/A   Clear
2:55 AM 37.4 °F 30.8 °F 8.6 °F 30% 30.16 in 10.0 mi NNW 9.2 mph 17.3 mph N/A   Clear
3:15 AM 37.4 °F 30.8 °F 8.6 °F 30% 30.17 in 10.0 mi NNW 9.2 mph - N/A   Clear
3:35 AM 35.6 °F 30.7 °F 10.4 °F 35% 30.17 in 10.0 mi North 5.8 mph - N/A   Clear
3:55 AM 35.6 °F 28.6 °F 12.2 °F 38% 30.16 in 10.0 mi North 9.2 mph - N/A   Clear
4:15 AM 35.6 °F 29.9 °F 10.4 °F 35% 30.16 in 10.0 mi NNW 6.9 mph - N/A   Clear
4:35 AM 35.6 °F 30.7 °F 12.2 °F 38% 30.16 in 10.0 mi North 5.8 mph - N/A   Clear
4:55 AM 33.8 °F 30.8 °F 12.2 °F 41% 30.17 in 10.0 mi North 3.5 mph - N/A   Clear
5:15 AM 33.8 °F - 12.2 °F 41% 30.18 in 10.0 mi Calm Calm - N/A   Clear
5:35 AM 33.8 °F - 12.2 °F 41% 30.19 in 10.0 mi Calm Calm - N/A   Clear
5:55 AM 33.8 °F 28.6 °F 12.2 °F 41% 30.19 in 10.0 mi North 5.8 mph - N/A   Clear
6:15 AM 32.0 °F 26.4 °F 14.0 °F 48% 30.18 in 10.0 mi North 5.8 mph - N/A   Clear
6:35 AM 33.8 °F - 12.2 °F 41% 30.19 in 10.0 mi Calm Calm - N/A   Clear
6:55 AM 32.0 °F 28.7 °F 12.2 °F 44% 30.19 in 10.0 mi North 3.5 mph - N/A   Clear
7:15 AM 32.0 °F 28.7 °F 14.0 °F 48% 30.20 in 10.0 mi North 3.5 mph - N/A   Clear
7:35 AM 32.0 °F - 12.2 °F 44% 30.21 in 10.0 mi Calm Calm - N/A   Clear
7:55 AM 32.0 °F - 14.0 °F 48% 30.24 in 10.0 mi Calm Calm - N/A   Clear
8:15 AM 33.8 °F 28.6 °F 15.8 °F 48% 30.25 in 10.0 mi NNW 5.8 mph - N/A   Clear
8:35 AM 33.8 °F 27.7 °F 15.8 °F 48% 30.25 in 10.0 mi North 6.9 mph - N/A   Clear
8:55 AM 35.6 °F 28.0 °F 14.0 °F 41% 30.25 in 10.0 mi NNW 10.4 mph - N/A   Clear
9:15 AM 35.6 °F 28.6 °F 14.0 °F 41% 30.25 in 10.0 mi North 9.2 mph - N/A   Clear
9:35 AM 37.4 °F 30.8 °F 15.8 °F 41% 30.26 in 10.0 mi North 9.2 mph - N/A   Clear
9:55 AM 37.4 °F 29.8 °F 14.0 °F 38% 30.26 in 10.0 mi NNW 11.5 mph 17.3 mph N/A   Clear
10:15 AM 37.4 °F 30.8 °F 14.0 °F 38% 30.25 in 10.0 mi North 9.2 mph 17.3 mph N/A   Clear
10:35 AM 37.4 °F 28.9 °F 12.2 °F 36% 30.26 in 10.0 mi NW 13.8 mph - N/A   Clear
10:55 AM 39.2 °F 32.5 °F 12.2 °F 33% 30.27 in 10.0 mi NNW 10.4 mph 17.3 mph N/A   Clear
11:15 AM 39.2 °F 31.6 °F 12.2 °F 33% 30.27 in 10.0 mi NNW 12.7 mph 18.4 mph N/A   Clear
11:35 AM 41.0 °F 34.7 °F 12.2 °F 31% 30.26 in 10.0 mi North 10.4 mph 18.4 mph N/A   Clear
11:55 AM 42.8 °F 35.4 °F 14.0 °F 31% 30.25 in 10.0 mi North 15.0 mph - N/A   Clear
12:15 PM 42.8 °F 37.0 °F 12.2 °F 29% 30.24 in 10.0 mi NNW 10.4 mph - N/A   Clear
12:35 PM 44.6 °F 39.2 °F 12.2 °F 27% 30.23 in 10.0 mi NNW 10.4 mph - N/A   Clear
12:55 PM 44.6 °F 38.8 °F 10.4 °F 25% 30.23 in 10.0 mi WNW 11.5 mph - N/A   Clear
1:15 PM 46.4 °F 42.9 °F 8.6 °F 22% 30.24 in 10.0 mi NNW 6.9 mph - N/A   Clear
1:35 PM 46.4 °F 41.9 °F 8.6 °F 22% 30.23 in 10.0 mi NW 9.2 mph - N/A   Clear
1:55 PM 48.2 °F - 6.8 °F 19% 30.23 in 10.0 mi North 9.2 mph 17.3 mph N/A   Clear
2:15 PM 48.2 °F - 8.6 °F 20% 30.22 in 10.0 mi North 9.2 mph 17.3 mph N/A   Clear
2:35 PM 51.8 °F - 8.6 °F 18% 30.21 in 10.0 mi NNW 8.1 mph - N/A   Clear
2:55 PM 51.8 °F - 8.6 °F 18% 30.21 in 10.0 mi North 10.4 mph 18.4 mph N/A   Clear
3:15 PM 51.8 °F - 8.6 °F 18% 30.22 in 10.0 mi NW 9.2 mph 19.6 mph N/A   Clear
3:35 PM 51.8 °F - 6.8 °F 16% 30.23 in 10.0 mi West 9.2 mph 15.0 mph N/A   Clear
3:55 PM 51.8 °F - 3.2 °F 14% 30.23 in 10.0 mi NW 11.5 mph 17.3 mph N/A   Clear
4:15 PM 51.8 °F - 5.0 °F 15% 30.23 in 10.0 mi NW 11.5 mph 16.1 mph N/A   Clear
4:35 PM 51.8 °F - 3.2 °F 14% 30.23 in 10.0 mi NW 13.8 mph 20.7 mph N/A   Clear
4:55 PM 51.8 °F - 1.4 °F 13% 30.24 in 10.0 mi NW 11.5 mph 19.6 mph N/A   Clear
5:15 PM 51.8 °F - -0.4 °F 12% 30.23 in 10.0 mi WNW 9.2 mph 18.4 mph N/A   Clear
5:35 PM 51.8 °F - 1.4 °F 13% 30.23 in 10.0 mi NW 15.0 mph 18.4 mph N/A   Clear
5:55 PM 51.8 °F - 3.2 °F 14% 30.23 in 10.0 mi NW 10.4 mph 17.3 mph N/A   Clear
6:15 PM 51.8 °F - 3.2 °F 14% 30.24 in 10.0 mi NNW 9.2 mph - N/A   Clear
6:35 PM 51.8 °F - 3.2 °F 14% 30.24 in 10.0 mi NW 10.4 mph - N/A   Clear
6:55 PM 50.0 °F - 1.4 °F 14% 30.24 in 10.0 mi NW 11.5 mph - N/A   Clear
7:15 PM 48.2 °F - 3.2 °F 16% 30.24 in 10.0 mi NW 8.1 mph - N/A   Clear
7:35 PM 48.2 °F - 5.0 °F 17% 30.23 in 10.0 mi NW 6.9 mph - N/A   Clear
7:55 PM 48.2 °F - 6.8 °F 19% 30.24 in 10.0 mi NW 9.2 mph - N/A   Clear
8:15 PM 46.4 °F 42.4 °F 6.8 °F 20% 30.24 in 10.0 mi NNW 8.1 mph - N/A   Clear
8:35 PM 46.4 °F 43.5 °F 6.8 °F 20% 30.25 in 10.0 mi NNW 5.8 mph - N/A   Clear
8:55 PM 44.6 °F 41.4 °F 5.0 °F 20% 30.26 in 10.0 mi NNE 5.8 mph - N/A   Clear
9:15 PM 44.6 °F 42.2 °F 3.2 °F 18% 30.26 in 10.0 mi NNE 4.6 mph - N/A   Clear
9:35 PM 44.6 °F 40.7 °F 5.0 °F 20% 30.27 in 10.0 mi North 6.9 mph - N/A   Clear
9:55 PM 44.6 °F 42.2 °F 6.8 °F 21% 30.28 in 10.0 mi NNE 4.6 mph - N/A   Clear
10:15 PM 42.8 °F - 6.8 °F 23% 30.28 in 10.0 mi Calm Calm - N/A   Clear
10:35 PM 42.8 °F 41.1 °F 6.8 °F 23% 30.31 in 10.0 mi ESE 3.5 mph - N/A   Clear
10:55 PM 42.8 °F 41.1 °F 6.8 °F 23% 30.31 in 10.0 mi NE 3.5 mph - N/A   Clear
11:15 PM 42.8 °F 40.1 °F 3.2 °F 19% 30.31 in 10.0 mi ENE 4.6 mph - N/A   Clear
11:35 PM 41.0 °F 38.0 °F 6.8 °F 24% 30.31 in 10.0 mi NE 4.6 mph - N/A   Clear
11:55 PM 41.0 °F 39.0 °F 6.8 °F 24% 30.30 in 10.0 mi NNE 3.5 mph - N/A   Clear